Time;durP1;ratioP1;P1;durP2;ratioP2;P2;SDS_P1;SDS_P2;PMS_P1;PMS_P2;Temp;Humidity;BMP_temperature;BMP_pressure;BME280_temperature;BME280_humidity;BME280_pressure;Samples;Min_cycle;Max_cycle;Signal;HPM_P1;HPM_P2
2021/07/16 00:01:51;;;;;;;5.70;4.40;;;19.50;97.30;;;;;;5017038;28;20267;-77
2021/07/16 00:04:16;;;;;;;9.10;4.97;;;19.40;97.30;;;;;;5034918;28;20172;-78
2021/07/16 00:06:42;;;;;;;7.13;5.37;;;19.40;97.30;;;;;;5017354;28;20183;-78
2021/07/16 00:09:08;;;;;;;6.37;4.50;;;19.40;97.30;;;;;;5016996;28;20626;-78
2021/07/16 00:11:34;;;;;;;6.93;4.73;;;19.40;97.30;;;;;;5034738;28;20231;-78
2021/07/16 00:14:00;;;;;;;5.80;4.60;;;19.30;97.30;;;;;;5016774;28;20450;-78
2021/07/16 00:16:26;;;;;;;5.40;5.00;;;19.30;97.30;;;;;;5017169;28;20514;-78
2021/07/16 00:18:53;;;;;;;6.20;4.73;;;19.20;97.30;;;;;;5016965;28;20458;-79
2021/07/16 00:21:19;;;;;;;6.50;4.40;;;19.20;97.30;;;;;;5016941;28;20603;-78
2021/07/16 00:23:45;;;;;;;6.53;4.40;;;19.20;97.30;;;;;;5016873;28;20560;-78
2021/07/16 00:26:12;;;;;;;4.43;4.13;;;19.10;97.30;;;;;;5017174;28;20911;-77
2021/07/16 00:28:38;;;;;;;10.03;4.83;;;19.10;97.30;;;;;;5017228;28;20186;-78
2021/07/16 00:31:03;;;;;;;6.03;4.53;;;19.10;97.30;;;;;;5017236;28;20506;-79
2021/07/16 00:33:29;;;;;;;5.83;4.27;;;19.00;97.30;;;;;;5017070;28;20255;-78
2021/07/16 00:35:55;;;;;;;5.10;4.07;;;19.00;97.30;;;;;;5034851;28;20242;-83
2021/07/16 00:38:20;;;;;;;7.63;4.30;;;18.90;97.30;;;;;;5020188;28;20228;-80
2021/07/16 00:40:46;;;;;;;5.90;4.13;;;18.90;97.30;;;;;;5057877;23;20294;-81
2021/07/16 00:43:12;;;;;;;4.00;3.90;;;18.90;97.30;;;;;;5020452;28;20217;-81
2021/07/16 00:45:37;;;;;;;8.27;4.30;;;18.90;97.30;;;;;;5020565;28;20181;-81
2021/07/16 00:48:04;;;;;;;5.20;4.80;;;18.80;97.30;;;;;;5020577;28;20177;-83
2021/07/16 00:50:36;;;;;;;7.13;4.60;;;18.80;97.30;;;;;;5019481;28;20264;-81
2021/07/16 00:53:04;;;;;;;14.63;4.70;;;18.80;97.30;;;;;;5020598;28;20546;-81
2021/07/16 00:55:31;;;;;;;5.20;4.90;;;18.80;97.30;;;;;;5021250;28;20430;-80
2021/07/16 00:57:58;;;;;;;5.77;4.17;;;18.80;97.30;;;;;;5020398;28;20419;-81
2021/07/16 01:00:24;;;;;;;6.30;4.53;;;18.80;97.30;;;;;;5020262;28;20530;-81
2021/07/16 01:02:52;;;;;;;6.83;4.63;;;18.80;97.30;;;;;;5018130;28;20447;-82
2021/07/16 01:05:19;;;;;;;13.87;5.03;;;18.70;97.30;;;;;;5017206;28;20453;-82
2021/07/16 01:07:46;;;;;;;13.07;5.00;;;18.70;97.30;;;;;;5019318;28;20419;-81
2021/07/16 01:10:12;;;;;;;8.07;4.10;;;18.70;97.30;;;;;;5019751;28;20928;-81
2021/07/16 01:12:39;;;;;;;8.77;4.83;;;18.60;97.30;;;;;;5039328;28;20936;-82
2021/07/16 01:15:07;;;;;;;12.13;5.27;;;18.60;97.30;;;;;;5021566;28;20498;-81
2021/07/16 01:17:33;;;;;;;7.67;3.90;;;18.60;97.30;;;;;;5038474;28;20424;-81
2021/07/16 01:20:11;;;;;;;9.80;4.90;;;18.50;97.30;;;;;;5019825;28;20429;-82
2021/07/16 01:22:39;;;;;;;5.97;4.60;;;18.50;97.30;;;;;;5003044;28;20471;-82
2021/07/16 01:25:06;;;;;;;6.77;4.80;;;18.50;97.30;;;;;;5003449;28;20439;-79
2021/07/16 01:27:33;;;;;;;4.80;4.57;;;18.50;97.30;;;;;;5021902;28;20423;-80
2021/07/16 01:30:00;;;;;;;6.20;4.50;;;18.50;97.30;;;;;;5039671;28;20430;-79
2021/07/16 01:32:26;;;;;;;12.03;4.43;;;18.50;97.30;;;;;;5021742;28;20454;-80
2021/07/16 01:34:52;;;;;;;5.37;4.30;;;18.60;97.30;;;;;;5011553;28;20447;-79
2021/07/16 01:37:17;;;;;;;9.50;5.30;;;18.50;97.30;;;;;;5002805;28;20486;-79
2021/07/16 01:39:43;;;;;;;6.00;4.90;;;18.60;97.30;;;;;;5002087;28;20177;-79
2021/07/16 01:42:10;;;;;;;11.00;5.30;;;18.60;97.30;;;;;;5010177;28;20811;-80
2021/07/16 01:44:39;;;;;;;5.90;4.60;;;18.60;97.30;;;;;;5022422;28;20180;-79
2021/07/16 01:47:05;;;;;;;5.63;4.73;;;18.60;97.30;;;;;;5021693;28;20426;-79
2021/07/16 01:49:31;;;;;;;10.97;4.73;;;18.60;97.30;;;;;;5022718;28;20424;-79
2021/07/16 01:51:57;;;;;;;8.67;5.07;;;18.60;97.30;;;;;;5017348;28;20448;-79
2021/07/16 01:54:22;;;;;;;6.50;4.77;;;18.60;97.30;;;;;;5002486;28;20209;-79
2021/07/16 01:56:48;;;;;;;9.87;5.63;;;18.60;97.30;;;;;;5002462;28;20424;-79
2021/07/16 01:59:14;;;;;;;13.33;5.70;;;18.50;97.30;;;;;;5001848;28;20181;-79
2021/07/16 02:01:40;;;;;;;6.23;5.30;;;18.60;97.30;;;;;;5006023;28;20235;-81
2021/07/16 02:04:06;;;;;;;11.03;5.23;;;18.50;97.30;;;;;;5018739;28;20614;-82
2021/07/16 02:06:32;;;;;;;7.53;5.60;;;18.60;97.30;;;;;;4999761;28;20420;-81
2021/07/16 02:08:58;;;;;;;7.73;5.33;;;18.60;97.30;;;;;;4999605;28;20200;-81
2021/07/16 02:11:24;;;;;;;8.07;6.17;;;18.60;97.30;;;;;;4998228;28;20440;-81
2021/07/16 02:13:51;;;;;;;9.77;5.43;;;18.60;97.30;;;;;;4998092;28;20491;-81
2021/07/16 02:16:17;;;;;;;20.73;6.23;;;18.60;97.30;;;;;;4997623;28;20408;-81
2021/07/16 02:18:53;;;;;;;17.47;6.17;;;18.60;97.30;;;;;;4997959;28;20443;-83
2021/07/16 02:21:20;;;;;;;24.50;6.80;;;18.60;97.30;;;;;;4999969;28;20431;-81
2021/07/16 02:23:46;;;;;;;23.47;6.50;;;18.60;97.30;;;;;;5017071;28;20442;-81
2021/07/16 02:26:11;;;;;;;17.63;6.03;;;18.60;97.30;;;;;;5002090;28;20933;-81
2021/07/16 02:28:38;;;;;;;10.67;6.20;;;18.60;97.30;;;;;;4997158;28;20235;-81
2021/07/16 02:31:07;;;;;;;10.63;5.87;;;18.60;97.30;;;;;;5006049;28;20258;-81
2021/07/16 02:33:33;;;;;;;9.60;5.77;;;18.60;97.30;;;;;;5016811;28;20454;-82
2021/07/16 02:35:59;;;;;;;12.00;5.30;;;18.60;97.30;;;;;;5019503;28;20437;-82
2021/07/16 02:38:25;;;;;;;14.07;5.63;;;18.60;97.30;;;;;;5017559;28;20411;-82
2021/07/16 02:40:53;;;;;;;9.90;6.03;;;18.60;97.30;;;;;;5015956;28;20470;-80
2021/07/16 02:43:18;;;;;;;17.00;6.13;;;18.60;97.30;;;;;;5017070;28;20196;-81
2021/07/16 02:45:45;;;;;;;21.43;7.10;;;18.60;97.30;;;;;;5017448;28;20464;-81
2021/07/16 02:48:11;;;;;;;20.00;6.77;;;18.60;97.30;;;;;;5017878;28;20176;-81
2021/07/16 02:50:40;;;;;;;17.80;7.13;;;18.60;97.30;;;;;;5017495;28;20519;-83
2021/07/16 02:53:11;;;;;;;10.17;6.40;;;18.60;97.30;;;;;;5016740;28;20415;-82
2021/07/16 02:55:37;;;;;;;10.37;5.63;;;18.60;97.30;;;;;;5017979;28;20812;-81
2021/07/16 02:58:04;;;;;;;11.23;5.63;;;18.60;97.30;;;;;;5007601;28;20424;-81
2021/07/16 03:00:30;;;;;;;7.90;5.70;;;18.50;97.30;;;;;;5034598;28;21037;-81
2021/07/16 03:02:57;;;;;;;11.57;5.70;;;18.50;97.30;;;;;;5010630;28;20420;-81
2021/07/16 03:05:27;;;;;;;8.67;5.97;;;18.50;97.30;;;;;;4996975;28;20478;-81
2021/07/16 03:07:53;;;;;;;6.97;5.40;;;18.50;97.30;;;;;;4998258;28;20431;-81
2021/07/16 03:10:25;;;;;;;7.00;5.20;;;18.50;97.30;;;;;;4997721;28;20451;-81
2021/07/16 03:12:52;;;;;;;9.20;5.93;;;18.50;97.30;;;;;;4997944;28;20173;-82
2021/07/16 03:15:20;;;;;;;8.47;5.60;;;18.50;97.30;;;;;;4997195;28;20542;-82
2021/07/16 03:17:47;;;;;;;7.93;5.73;;;18.60;97.30;;;;;;4997480;28;20412;-82
2021/07/16 03:20:18;;;;;;;8.13;5.60;;;18.60;97.30;;;;;;4997156;28;20763;-82
2021/07/16 03:22:43;;;;;;;9.50;5.20;;;18.60;97.30;;;;;;4999276;28;20443;-81
2021/07/16 03:25:12;;;;;;;8.23;6.17;;;18.60;97.30;;;;;;4999593;28;20423;-80
2021/07/16 03:27:38;;;;;;;11.13;5.40;;;18.60;97.30;;;;;;5003141;28;20173;-79
2021/07/16 03:30:07;;;;;;;8.90;5.70;;;18.60;97.30;;;;;;5011288;28;20511;-80
2021/07/16 03:32:35;;;;;;;18.27;5.30;;;18.70;97.30;;;;;;4998623;28;20177;-81
2021/07/16 03:35:02;;;;;;;15.43;5.53;;;18.60;97.30;;;;;;4999595;28;20836;-81
2021/07/16 03:37:27;;;;;;;10.23;6.60;;;18.60;97.30;;;;;;5018803;28;20411;-81
2021/07/16 03:39:53;;;;;;;10.50;5.03;;;18.60;97.30;;;;;;4999928;28;20761;-80
2021/07/16 03:42:18;;;;;;;13.00;6.30;;;18.60;97.30;;;;;;4999387;28;20255;-81
2021/07/16 03:44:46;;;;;;;15.60;5.47;;;18.60;97.30;;;;;;5002005;28;20235;-81
2021/07/16 03:47:13;;;;;;;14.37;5.40;;;18.60;97.30;;;;;;5022697;28;20181;-81
2021/07/16 03:49:38;;;;;;;10.90;5.80;;;18.60;97.30;;;;;;5003790;28;20431;-79
2021/07/16 03:52:04;;;;;;;9.80;5.43;;;18.60;97.30;;;;;;5004413;28;20444;-80
2021/07/16 03:54:30;;;;;;;9.80;6.00;;;18.60;97.30;;;;;;5002460;28;20213;-81
2021/07/16 03:56:55;;;;;;;10.37;5.37;;;18.60;97.30;;;;;;5015473;28;20701;-80
2021/07/16 03:59:21;;;;;;;9.83;5.77;;;18.60;97.30;;;;;;5020672;28;20176;-82
2021/07/16 04:01:48;;;;;;;8.47;5.20;;;18.60;97.30;;;;;;5021223;28;20247;-81
2021/07/16 04:04:15;;;;;;;14.93;6.20;;;18.60;97.30;;;;;;5022434;28;20183;-82
2021/07/16 04:06:41;;;;;;;8.03;5.57;;;18.60;97.30;;;;;;5020447;28;20434;-82
2021/07/16 04:11:51;;;;;;;9.50;5.90;;;18.60;97.30;;;;;;5021820;28;20857;-80
2021/07/16 04:14:16;;;;;;;8.83;5.73;;;18.60;97.30;;;;;;5003446;28;20452;-81
2021/07/16 04:16:42;;;;;;;11.30;7.40;;;18.60;97.30;;;;;;5003482;28;20193;-79
2021/07/16 04:19:07;;;;;;;11.73;7.53;;;18.60;97.30;;;;;;5002982;28;20180;-80
2021/07/16 04:21:33;;;;;;;12.47;7.80;;;18.60;97.30;;;;;;5002831;28;20227;-80
2021/07/16 04:23:58;;;;;;;9.53;7.10;;;18.50;97.30;;;;;;5003172;28;20694;-80
2021/07/16 04:26:24;;;;;;;11.30;8.40;;;18.60;97.30;;;;;;5004164;28;20188;-79
2021/07/16 04:28:49;;;;;;;11.20;7.60;;;18.60;97.30;;;;;;5013868;28;20216;-79
2021/07/16 04:31:16;;;;;;;10.90;7.37;;;18.60;97.30;;;;;;5023440;28;20204;-79
2021/07/16 04:33:42;;;;;;;12.10;7.47;;;18.60;97.30;;;;;;5023844;28;20659;-79
2021/07/16 04:36:08;;;;;;;11.53;9.00;;;18.60;97.30;;;;;;5014056;28;20431;-80
2021/07/16 04:38:35;;;;;;;12.70;8.83;;;18.60;97.30;;;;;;5005858;28;20177;-80
2021/07/16 04:41:00;;;;;;;14.27;8.60;;;18.70;97.30;;;;;;5004084;28;20238;-80
2021/07/16 04:43:26;;;;;;;17.93;9.60;;;18.70;97.30;;;;;;5004093;28;20937;-80
2021/07/16 04:45:51;;;;;;;16.23;10.43;;;18.70;97.30;;;;;;5001318;28;20588;-78
2021/07/16 04:48:17;;;;;;;24.47;11.30;;;18.70;97.30;;;;;;5025490;28;20637;-81
2021/07/16 04:50:44;;;;;;;31.27;14.67;;;18.70;97.30;;;;;;5038175;28;20230;-81
2021/07/16 04:53:09;;;;;;;35.80;15.03;;;18.80;97.30;;;;;;5039044;28;20232;-81
2021/07/16 04:55:35;;;;;;;28.27;16.37;;;18.80;97.30;;;;;;5038993;28;20514;-81
2021/07/16 04:58:00;;;;;;;37.20;18.07;;;18.90;97.30;;;;;;5038744;28;20183;-81
2021/07/16 05:00:26;;;;;;;32.13;17.33;;;19.00;97.30;;;;;;5035799;28;20237;-82
2021/07/16 05:02:51;;;;;;;37.00;18.20;;;19.00;97.30;;;;;;5045801;28;20199;-82
2021/07/16 05:05:17;;;;;;;38.90;18.57;;;19.00;97.30;;;;;;5015783;28;20182;-82
2021/07/16 05:07:43;;;;;;;34.37;18.60;;;19.10;97.30;;;;;;5019336;28;20613;-81
2021/07/16 05:10:10;;;;;;;48.97;21.27;;;19.10;97.30;;;;;;5017647;28;20172;-82
2021/07/16 05:12:36;;;;;;;39.60;22.10;;;19.10;97.30;;;;;;5035452;28;20176;-82
2021/07/16 05:15:04;;;;;;;43.63;21.90;;;19.10;97.30;;;;;;5018744;28;20540;-83
2021/07/16 05:17:30;;;;;;;46.80;22.27;;;19.20;97.30;;;;;;5016260;28;20611;-83
2021/07/16 05:19:56;;;;;;;47.90;22.13;;;19.20;97.30;;;;;;5020331;28;20439;-83
2021/07/16 05:22:21;;;;;;;49.40;24.83;;;19.20;97.30;;;;;;5020576;28;20723;-83
2021/07/16 05:24:47;;;;;;;47.23;24.10;;;19.20;97.30;;;;;;5015020;28;20177;-83
2021/07/16 05:27:12;;;;;;;53.13;25.13;;;19.20;97.30;;;;;;5011402;28;20641;-82
2021/07/16 05:29:38;;;;;;;55.40;24.87;;;19.20;97.30;;;;;;5018139;28;20180;-83
2021/07/16 05:32:04;;;;;;;60.50;28.23;;;19.20;97.30;;;;;;5017706;28;20215;-82
2021/07/16 05:34:29;;;;;;;68.20;28.13;;;19.20;97.30;;;;;;5035656;28;20861;-82
2021/07/16 05:36:55;;;;;;;61.57;28.20;;;19.20;97.30;;;;;;5017701;28;20187;-82
2021/07/16 05:39:20;;;;;;;55.93;27.90;;;19.20;97.30;;;;;;5016786;28;20176;-82
2021/07/16 05:42:28;;;;;;;64.50;28.67;;;19.30;97.30;;;;;;5111378;27;20534;-83
2021/07/16 05:44:54;;;;;;;64.97;27.83;;;19.30;97.30;;;;;;5111014;28;20487;-84
2021/07/16 05:47:20;;;;;;;57.53;28.43;;;19.30;97.30;;;;;;5092915;28;20184;-84
2021/07/16 05:49:46;;;;;;;58.20;28.47;;;19.30;97.30;;;;;;5093302;28;20178;-83
2021/07/16 05:52:11;;;;;;;63.20;28.20;;;19.30;97.30;;;;;;5108243;28;20490;-83
2021/07/16 05:54:37;;;;;;;65.60;30.70;;;19.40;97.30;;;;;;5106159;28;20171;-84
2021/07/16 05:57:02;;;;;;;71.37;30.37;;;19.40;97.30;;;;;;5090798;28;20178;-80
2021/07/16 05:59:28;;;;;;;60.33;30.00;;;19.40;97.30;;;;;;5057487;28;20175;-79
2021/07/16 06:01:53;;;;;;;70.57;31.33;;;19.40;97.30;;;;;;5074818;28;20199;-80
2021/07/16 06:04:19;;;;;;;66.20;31.20;;;19.40;97.30;;;;;;5071157;28;20719;-80
2021/07/16 06:06:48;;;;;;;69.07;31.73;;;19.50;97.30;;;;;;5088142;28;20268;-80
2021/07/16 06:09:13;;;;;;;65.73;30.20;;;19.50;97.30;;;;;;5096647;28;20175;-80
2021/07/16 06:11:39;;;;;;;71.13;33.33;;;19.50;97.30;;;;;;5095674;28;20462;-79
2021/07/16 06:14:04;;;;;;;73.10;32.73;;;19.50;97.30;;;;;;5095860;28;20794;-80
2021/07/16 06:16:30;;;;;;;72.10;33.90;;;19.60;97.30;;;;;;5092576;28;20182;-79
2021/07/16 06:18:56;;;;;;;74.37;32.30;;;19.60;97.30;;;;;;5091223;28;20644;-82
2021/07/16 06:21:22;;;;;;;75.70;32.47;;;19.60;97.30;;;;;;5085877;28;20536;-82
2021/07/16 06:23:47;;;;;;;77.27;32.93;;;19.60;97.30;;;;;;5086273;28;20178;-82
2021/07/16 06:26:13;;;;;;;77.80;34.50;;;19.60;97.30;;;;;;5086723;28;20540;-82
2021/07/16 06:28:38;;;;;;;82.90;35.30;;;19.70;97.30;;;;;;5088490;28;20262;-81
2021/07/16 06:31:04;;;;;;;81.83;33.70;;;19.70;97.30;;;;;;5077089;28;20253;-81
2021/07/16 06:33:29;;;;;;;75.63;34.33;;;19.80;97.30;;;;;;5077155;28;20175;-80
2021/07/16 06:35:55;;;;;;;82.57;35.80;;;19.80;97.30;;;;;;5072546;28;20528;-82
2021/07/16 06:38:20;;;;;;;79.73;35.17;;;19.80;97.30;;;;;;5072435;28;20226;-80
2021/07/16 06:40:46;;;;;;;91.83;36.57;;;19.80;97.30;;;;;;5061041;22;20225;-79
2021/07/16 06:43:12;;;;;;;93.40;38.47;;;19.90;97.30;;;;;;4989200;28;20206;-79
2021/07/16 06:45:37;;;;;;;92.60;40.30;;;19.90;97.30;;;;;;4988509;28;20177;-79
2021/07/16 06:48:05;;;;;;;94.77;39.03;;;20.00;97.30;;;;;;4988996;28;20174;-78
2021/07/16 06:50:30;;;;;;;99.97;38.17;;;20.00;97.30;;;;;;4987964;28;20670;-78
2021/07/16 06:52:56;;;;;;;95.83;38.93;;;20.00;97.30;;;;;;4981112;28;20542;-79
2021/07/16 06:55:21;;;;;;;96.10;39.27;;;20.00;97.30;;;;;;4974990;28;20210;-78
2021/07/16 06:57:47;;;;;;;86.83;36.83;;;20.00;97.30;;;;;;4975728;28;20298;-81
2021/07/16 07:00:17;;;;;;;83.40;35.40;;;20.00;97.30;;;;;;4975229;28;20205;-78
2021/07/16 07:02:42;;;;;;;68.53;32.77;;;20.00;97.30;;;;;;4974251;28;20178;-78
2021/07/16 07:05:09;;;;;;;72.23;33.33;;;20.00;97.30;;;;;;4974093;28;20805;-79
2021/07/16 07:07:34;;;;;;;71.00;32.53;;;20.10;97.30;;;;;;4974694;28;20223;-79
2021/07/16 07:10:00;;;;;;;62.03;30.37;;;20.10;97.30;;;;;;4975199;28;20810;-78
2021/07/16 07:12:25;;;;;;;63.07;30.17;;;20.20;97.30;;;;;;4974894;28;20179;-79
2021/07/16 07:14:52;;;;;;;64.57;30.13;;;20.30;97.30;;;;;;4977100;28;20235;-79
2021/07/16 07:17:19;;;;;;;67.67;31.93;;;20.30;97.30;;;;;;4974265;28;20187;-79
2021/07/16 07:19:44;;;;;;;64.10;29.87;;;20.30;97.30;;;;;;4975232;28;20430;-79
2021/07/16 07:22:10;;;;;;;65.40;30.43;;;20.30;97.30;;;;;;4975201;28;20550;-77
2021/07/16 07:24:35;;;;;;;60.87;29.70;;;20.30;97.30;;;;;;4975246;28;20182;-79
2021/07/16 07:27:01;;;;;;;62.63;28.57;;;20.40;97.30;;;;;;4974891;28;20178;-80
2021/07/16 07:29:27;;;;;;;55.50;27.90;;;20.40;97.30;;;;;;4972056;28;20183;-80
2021/07/16 07:31:52;;;;;;;58.93;29.37;;;20.50;97.30;;;;;;4972190;28;20195;-80
2021/07/16 07:34:18;;;;;;;57.23;28.70;;;20.50;97.30;;;;;;4970763;28;20236;-80
2021/07/16 07:36:48;;;;;;;54.60;27.80;;;20.50;97.30;;;;;;4971926;28;20186;-79
2021/07/16 07:39:14;;;;;;;55.67;26.50;;;20.60;97.30;;;;;;4971796;28;20183;-80
2021/07/16 07:41:45;;;;;;;48.87;26.20;;;20.70;97.30;;;;;;4970995;28;21053;-80
2021/07/16 07:44:11;;;;;;;52.47;25.93;;;20.70;97.30;;;;;;4972052;28;20467;-80
2021/07/16 07:46:37;;;;;;;70.67;31.87;;;20.80;97.30;;;;;;4970712;28;20579;-80
2021/07/16 07:49:03;;;;;;;85.10;36.13;;;20.80;97.30;;;;;;4971832;28;20477;-80
2021/07/16 07:51:32;;;;;;;90.47;38.87;;;20.80;97.30;;;;;;4970806;28;20233;-80
2021/07/16 07:53:57;;;;;;;92.53;38.70;;;20.80;97.30;;;;;;4972927;28;20479;-80
2021/07/16 07:56:23;;;;;;;88.83;38.43;;;20.70;97.30;;;;;;4971178;28;20422;-79
2021/07/16 07:58:48;;;;;;;79.37;37.20;;;20.70;97.30;;;;;;4971996;28;20182;-80
2021/07/16 08:01:14;;;;;;;87.20;36.83;;;20.60;97.30;;;;;;4973942;28;20238;-80
2021/07/16 08:03:41;;;;;;;85.50;35.00;;;20.60;97.30;;;;;;4971490;28;20178;-79
2021/07/16 08:06:06;;;;;;;88.93;36.30;;;20.60;97.30;;;;;;4972824;28;20200;-80
2021/07/16 08:08:32;;;;;;;78.50;35.80;;;20.60;97.30;;;;;;4972985;28;20907;-78
2021/07/16 08:10:58;;;;;;;74.77;33.40;;;20.60;97.30;;;;;;4973629;28;20203;-80
2021/07/16 08:13:24;;;;;;;68.00;33.20;;;20.70;97.30;;;;;;4976658;28;20746;-79
2021/07/16 08:15:50;;;;;;;69.57;32.60;;;20.70;97.30;;;;;;4973766;28;20463;-79
2021/07/16 08:18:15;;;;;;;57.03;28.17;;;20.70;97.30;;;;;;4973480;28;20271;-80
2021/07/16 08:20:41;;;;;;;57.80;27.83;;;20.70;97.30;;;;;;4972904;28;20762;-79
2021/07/16 08:23:07;;;;;;;61.70;26.07;;;20.70;97.30;;;;;;4973272;28;20186;-80
2021/07/16 08:25:35;;;;;;;52.67;25.60;;;20.80;97.30;;;;;;4973830;28;20527;-78
2021/07/16 08:28:02;;;;;;;53.37;26.00;;;20.90;97.30;;;;;;4974028;28;20281;-79
2021/07/16 08:30:27;;;;;;;56.00;26.00;;;20.90;97.30;;;;;;4973719;28;20855;-80
2021/07/16 08:32:53;;;;;;;51.10;27.50;;;21.00;97.30;;;;;;4973931;28;20754;-78
2021/07/16 08:35:19;;;;;;;48.70;25.13;;;21.00;97.30;;;;;;4975010;28;20555;-80
2021/07/16 08:37:44;;;;;;;46.10;24.60;;;20.90;97.30;;;;;;4973874;28;20214;-79
2021/07/16 08:40:10;;;;;;;47.00;26.73;;;20.90;97.30;;;;;;4972707;28;20436;-79
2021/07/16 08:42:36;;;;;;;52.90;24.90;;;20.90;97.30;;;;;;4975269;28;20175;-80
2021/07/16 08:45:10;;;;;;;54.90;25.43;;;20.90;97.30;;;;;;4973971;28;20421;-79
2021/07/16 08:47:36;;;;;;;56.50;27.17;;;20.90;97.30;;;;;;4973637;28;20270;-80
2021/07/16 08:50:05;;;;;;;54.43;28.70;;;20.90;97.30;;;;;;4980713;28;20421;-79
2021/07/16 08:52:31;;;;;;;65.10;28.73;;;20.90;97.30;;;;;;4977981;28;20418;-79
2021/07/16 08:54:59;;;;;;;51.47;27.23;;;20.90;97.30;;;;;;4973218;28;20452;-80
2021/07/16 08:57:27;;;;;;;47.60;26.60;;;20.80;97.30;;;;;;4973529;28;20236;-79
2021/07/16 08:59:52;;;;;;;54.33;26.77;;;20.80;97.30;;;;;;4981695;28;20922;-79
2021/07/16 09:02:18;;;;;;;40.57;24.30;;;20.80;97.30;;;;;;4973386;28;20480;-80
2021/07/16 09:04:45;;;;;;;45.70;24.83;;;20.90;97.30;;;;;;4973145;28;20533;-80
2021/07/16 09:07:10;;;;;;;64.50;27.10;;;20.90;97.30;;;;;;4972607;28;20442;-79
2021/07/16 09:09:37;;;;;;;48.30;26.17;;;20.90;97.30;;;;;;4973536;28;20498;-80
2021/07/16 09:12:13;;;;;;;43.90;24.20;;;20.90;97.30;;;;;;4973354;28;20655;-79
2021/07/16 09:14:41;;;;;;;41.83;22.93;;;20.90;97.30;;;;;;4972907;28;20436;-80
2021/07/16 09:17:11;;;;;;;42.97;23.70;;;20.90;97.30;;;;;;4972994;28;20440;-80
2021/07/16 09:19:38;;;;;;;43.57;23.53;;;21.00;97.30;;;;;;4973313;28;20476;-80
2021/07/16 09:22:09;;;;;;;46.43;23.43;;;21.00;97.30;;;;;;4972651;28;20466;-80
2021/07/16 09:24:39;;;;;;;49.53;24.30;;;21.10;97.30;;;;;;4974390;28;20414;-79
2021/07/16 09:27:28;;;;;;;41.20;23.50;;;21.20;97.30;;;;;;4973302;28;20855;-79
2021/07/16 09:29:53;;;;;;;44.53;22.30;;;21.10;97.30;;;;;;4968467;28;20432;-79
2021/07/16 09:32:19;;;;;;;36.87;22.37;;;21.10;97.30;;;;;;4973223;28;20877;-80
2021/07/16 09:34:50;;;;;;;49.87;24.37;;;21.10;97.30;;;;;;4974202;28;20190;-80
2021/07/16 09:37:16;;;;;;;43.27;22.87;;;21.10;97.30;;;;;;4973437;28;20643;-80
2021/07/16 09:39:45;;;;;;;39.97;22.47;;;21.10;97.30;;;;;;4973100;28;20422;-78
2021/07/16 09:42:12;;;;;;;39.57;23.33;;;21.10;97.30;;;;;;4972479;28;20226;-79
2021/07/16 09:44:40;;;;;;;41.30;22.50;;;21.10;97.30;;;;;;4973192;28;20526;-80
2021/07/16 09:47:13;;;;;;;43.03;23.30;;;21.10;97.30;;;;;;4974135;28;20429;-79
2021/07/16 09:49:40;;;;;;;37.80;20.33;;;21.10;97.30;;;;;;4982600;28;20437;-80
2021/07/16 09:52:15;;;;;;;39.17;19.93;;;21.20;97.30;;;;;;4992085;28;20527;-80
2021/07/16 09:55:05;;;;;;;35.97;19.90;;;21.20;97.30;;;;;;4991786;28;20433;-79
2021/07/16 09:57:43;;;;;;;32.17;18.20;;;21.30;97.30;;;;;;4954603;28;20423;-78
2021/07/16 10:00:15;;;;;;;33.87;18.47;;;21.30;97.30;;;;;;4953485;28;20438;-80
2021/07/16 10:02:51;;;;;;;32.57;16.97;;;21.40;97.30;;;;;;4954510;28;20867;-79
2021/07/16 10:05:17;;;;;;;26.70;16.10;;;21.40;97.30;;;;;;4974576;28;20487;-80
2021/07/16 10:07:44;;;;;;;24.33;16.10;;;21.50;97.30;;;;;;4971666;28;20426;-79
2021/07/16 10:10:18;;;;;;;28.00;15.97;;;21.50;97.30;;;;;;4972983;28;20459;-79
2021/07/16 10:12:45;;;;;;;22.47;14.80;;;21.60;97.30;;;;;;4972886;28;20402;-80
2021/07/16 10:15:12;;;;;;;27.30;15.20;;;21.60;97.30;;;;;;4972945;28;20433;-78
2021/07/16 10:17:39;;;;;;;28.00;15.57;;;21.70;97.30;;;;;;4971183;28;20425;-79
2021/07/16 10:20:10;;;;;;;26.23;15.27;;;21.70;97.30;;;;;;4972914;28;20430;-79
2021/07/16 10:22:38;;;;;;;24.40;15.07;;;21.70;97.30;;;;;;4972639;28;20435;-80
2021/07/16 10:25:05;;;;;;;24.30;14.43;;;21.70;97.30;;;;;;4972706;28;20426;-78
2021/07/16 10:27:32;;;;;;;22.63;14.83;;;21.70;97.30;;;;;;4974546;28;20416;-78
2021/07/16 10:30:10;;;;;;;28.13;14.83;;;21.80;97.30;;;;;;4975748;28;20849;-79
2021/07/16 10:32:46;;;;;;;28.53;15.47;;;21.80;97.30;;;;;;4975198;28;20425;-78
2021/07/16 10:35:13;;;;;;;25.13;15.77;;;21.80;97.30;;;;;;4959839;28;20529;-79
2021/07/16 10:37:38;;;;;;;26.73;16.10;;;21.80;97.30;;;;;;4975512;28;20519;-80
2021/07/16 10:40:05;;;;;;;28.03;16.50;;;21.80;97.30;;;;;;4974660;28;20429;-78
2021/07/16 10:42:30;;;;;;;32.67;16.33;;;21.80;97.30;;;;;;4975065;28;20230;-79
2021/07/16 10:44:58;;;;;;;25.90;15.30;;;21.90;97.30;;;;;;4975553;28;20417;-79
2021/07/16 10:47:44;;;;;;;25.03;14.90;;;21.90;97.30;;;;;;4975279;28;20319;-79
2021/07/16 10:50:28;;;;;;;22.87;14.37;;;21.90;97.30;;;;;;4955771;29;20878;-80
2021/07/16 10:52:54;;;;;;;20.57;13.60;;;21.90;97.30;;;;;;4958502;29;20399;-81
2021/07/16 10:55:40;;;;;;;22.00;13.70;;;21.80;97.30;;;;;;4961453;28;20422;-78
2021/07/16 10:58:29;;;;;;;23.70;12.97;;;21.80;97.30;;;;;;4974573;28;20414;-78
2021/07/16 11:00:59;;;;;;;22.53;12.70;;;21.90;97.30;;;;;;4975050;28;20882;-80
2021/07/16 11:03:50;;;;;;;20.23;13.60;;;21.90;97.30;;;;;;4983021;28;20430;-78
2021/07/16 11:06:17;;;;;;;20.57;13.10;;;22.00;97.30;;;;;;4974444;28;20417;-79
2021/07/16 11:08:42;;;;;;;23.57;14.87;;;22.00;97.30;;;;;;4976182;28;20409;-79
2021/07/16 11:11:11;;;;;;;23.73;13.83;;;22.10;97.30;;;;;;4974463;28;20433;-79
2021/07/16 11:13:47;;;;;;;19.40;12.60;;;22.10;97.30;;;;;;4975060;28;20181;-79
2021/07/16 11:16:16;;;;;;;20.63;12.90;;;22.10;97.30;;;;;;4975106;28;20422;-77
2021/07/16 11:19:07;;;;;;;18.93;12.10;;;22.10;97.30;;;;;;4974395;28;20434;-78
2021/07/16 11:21:41;;;;;;;21.60;12.80;;;22.20;97.30;;;;;;4973852;28;20470;-79
2021/07/16 11:24:19;;;;;;;19.80;12.00;;;22.30;97.30;;;;;;4976145;28;20906;-80
2021/07/16 11:26:58;;;;;;;21.13;13.63;;;22.40;97.30;;;;;;4974972;28;20410;-79
2021/07/16 11:29:26;;;;;;;25.00;15.93;;;22.50;97.30;;;;;;4974129;28;20469;-79
2021/07/16 11:32:21;;;;;;;25.03;16.30;;;22.50;97.30;;;;;;4973056;28;20506;-78
2021/07/16 11:34:56;;;;;;;23.10;15.33;;;22.60;97.30;;;;;;4971729;28;20436;-79
2021/07/16 11:37:29;;;;;;;23.43;14.80;;;22.60;97.30;;;;;;4973290;28;20432;-78
2021/07/16 11:40:07;;;;;;;23.47;15.67;;;22.60;97.30;;;;;;4974421;28;20426;-78
2021/07/16 11:42:47;;;;;;;26.17;15.90;;;22.60;97.30;;;;;;4973413;28;20484;-78
2021/07/16 11:45:25;;;;;;;30.93;17.47;;;22.70;97.30;;;;;;4973679;28;20460;-78
2021/07/16 11:47:51;;;;;;;26.87;16.03;;;22.70;97.30;;;;;;4973700;28;20429;-79
2021/07/16 11:50:17;;;;;;;29.97;16.20;;;22.80;97.30;;;;;;4974646;28;20505;-78
2021/07/16 11:52:47;;;;;;;22.47;15.23;;;22.80;97.30;;;;;;4973105;28;20866;-78
2021/07/16 11:55:15;;;;;;;26.27;16.43;;;22.90;97.30;;;;;;4974746;28;20171;-78
2021/07/16 11:57:53;;;;;;;26.10;15.03;;;22.90;97.30;;;;;;4974489;28;20459;-79
2021/07/16 12:00:22;;;;;;;25.67;15.80;;;23.00;97.30;;;;;;4971991;28;20449;-80
2021/07/16 12:02:47;;;;;;;28.93;15.80;;;23.00;97.30;;;;;;4973531;28;20435;-80
2021/07/16 12:05:15;;;;;;;26.73;15.83;;;23.10;97.30;;;;;;5007412;28;20430;-78
2021/07/16 12:07:44;;;;;;;26.47;15.50;;;23.20;97.30;;;;;;4995428;28;20616;-79
2021/07/16 12:10:16;;;;;;;27.33;14.67;;;23.30;97.30;;;;;;4973899;28;20432;-79
2021/07/16 12:12:42;;;;;;;27.33;15.17;;;23.40;97.30;;;;;;4975054;28;20433;-78
2021/07/16 12:15:18;;;;;;;26.67;14.83;;;23.50;97.30;;;;;;4973746;28;20425;-79
2021/07/16 12:17:52;;;;;;;21.80;14.23;;;23.50;97.30;;;;;;4955308;28;20469;-78
2021/07/16 12:20:28;;;;;;;24.80;14.90;;;23.70;97.30;;;;;;4955060;28;20438;-79
2021/07/16 12:22:54;;;;;;;24.27;13.10;;;23.80;97.30;;;;;;4955556;29;20422;-78
2021/07/16 12:25:21;;;;;;;24.50;12.90;;;24.00;97.30;;;;;;4954307;28;20422;-78
2021/07/16 12:28:08;;;;;;;18.80;12.40;;;24.10;97.30;;;;;;4972294;28;20458;-80
2021/07/16 12:30:44;;;;;;;22.00;13.40;;;24.20;97.30;;;;;;4973762;28;20456;-80
2021/07/16 12:33:11;;;;;;;18.73;12.57;;;24.30;97.30;;;;;;4974321;28;20410;-77
2021/07/16 12:35:42;;;;;;;22.87;14.43;;;24.40;97.30;;;;;;4976475;28;20436;-79
2021/07/16 12:38:13;;;;;;;20.80;12.70;;;24.60;97.30;;;;;;4975354;28;20425;-79
2021/07/16 12:40:40;;;;;;;17.70;13.27;;;24.60;97.30;;;;;;4974371;28;20477;-80